Job, Kentucky
Current Conditions -  °F | °C
As of 12:55 AM on Saturday 20 Dec 2014 (Local Time) from KSJS Reporting Station
Clear Clear  
Wind Chill: 26°   Ceiling: Unl
Heat Index: 26°   Visibility: 10mi
Dew Point: 23°   Wind: 0mph
Humidity: 87%   Direction: NA
Pressure: 30.22"   Gusts: NA
Location:  37.8702°N, 82.5184°W
Report Text: KSJS 200555Z AUTO 00000KT 10SM CLR M03/M05 A3022 RMK AO2 T10321051 11018 21036
Loading
Personal Weather Stations






























Interactive Weather Map New forecast layout! Learn more

10-Day Weather Forecast

Advertisements
Track Severe Weather on mobile